createdAt,value
2023-04-26T00:02:30.088Z,15.27
2023-04-26T00:05:04.051Z,16.57
2023-04-26T00:07:38.055Z,15.97
2023-04-26T00:10:12.126Z,16.53
2023-04-26T00:12:46.418Z,14.90
2023-04-26T00:15:19.440Z,17.77
2023-04-26T00:17:52.946Z,14.87
2023-04-26T00:20:25.927Z,14.03
2023-04-26T00:22:58.882Z,13.47
2023-04-26T00:25:31.843Z,15.17
2023-04-26T00:28:06.427Z,17.10
2023-04-26T00:30:42.135Z,17.47
2023-04-26T00:33:15.096Z,14.80
2023-04-26T00:35:48.071Z,14.97
2023-04-26T00:38:21.042Z,15.10
2023-04-26T00:40:53.971Z,15.70
2023-04-26T00:43:28.287Z,17.27
2023-04-26T00:46:01.336Z,19.77
2023-04-26T00:48:35.104Z,16.67
2023-04-26T00:51:08.280Z,17.00
2023-04-26T00:53:41.413Z,20.53
2023-04-26T00:56:14.648Z,18.30
2023-04-26T00:58:49.080Z,17.47
2023-04-26T01:01:22.333Z,16.20
2023-04-26T01:03:55.535Z,20.20
2023-04-26T01:06:34.328Z,17.67
2023-04-26T01:09:09.468Z,18.70
2023-04-26T01:11:44.701Z,22.97
2023-04-26T01:14:19.260Z,20.23
2023-04-26T01:16:52.488Z,22.73
2023-04-26T01:19:25.624Z,20.90
2023-04-26T01:21:58.753Z,19.80
2023-04-26T01:24:36.701Z,19.50
2023-04-26T01:27:09.768Z,21.17
2023-04-26T01:29:42.794Z,23.60
2023-04-26T01:32:15.820Z,26.57
2023-04-26T01:34:48.900Z,21.27
2023-04-26T01:37:21.869Z,24.93
2023-04-26T01:39:56.318Z,19.33
2023-04-26T01:42:29.431Z,23.43
2023-04-26T01:45:02.653Z,48.10
2023-04-26T01:47:35.792Z,24.77
2023-04-26T01:50:11.890Z,16.50
2023-04-26T01:52:44.859Z,17.73
2023-04-26T01:55:19.235Z,19.97
2023-04-26T01:57:52.217Z,16.53
2023-04-26T02:00:25.295Z,23.53
2023-04-26T02:02:58.991Z,31.43
2023-04-26T02:05:32.022Z,20.03
2023-04-26T02:08:06.131Z,44.10
2023-04-26T02:10:40.526Z,21.10
2023-04-26T02:13:13.521Z,26.37
2023-04-26T02:15:48.344Z,23.70
2023-04-26T02:18:22.500Z,21.10
2023-04-26T02:20:55.476Z,17.27
2023-04-26T02:23:28.560Z,18.00
2023-04-26T02:26:03.226Z,17.20
2023-04-26T02:28:36.716Z,19.33
2023-04-26T02:31:09.828Z,19.37
2023-04-26T02:33:42.848Z,21.13
2023-04-26T02:36:15.873Z,20.67
2023-04-26T02:38:48.814Z,20.43
2023-04-26T02:41:23.461Z,21.30
2023-04-26T02:43:56.399Z,20.47
2023-04-26T02:46:29.427Z,17.83
2023-04-26T02:49:02.426Z,22.80
2023-04-26T02:51:35.499Z,22.27
2023-04-26T02:54:08.469Z,18.70
2023-04-26T02:56:42.807Z,25.30
2023-04-26T02:59:15.813Z,30.03
2023-04-26T03:01:48.824Z,21.27
2023-04-26T03:04:21.903Z,44.40
2023-04-26T03:06:54.891Z,19.10
2023-04-26T03:09:27.984Z,20.73
2023-04-26T03:12:03.251Z,19.50
2023-04-26T03:14:37.058Z,17.77
2023-04-26T03:17:10.076Z,19.17
2023-04-26T03:19:43.108Z,36.23
2023-04-26T03:22:17.924Z,42.80
2023-04-26T03:24:50.956Z,21.70
2023-04-26T03:27:25.326Z,23.97
2023-04-26T03:29:58.537Z,59.33
2023-04-26T03:32:31.733Z,21.97
2023-04-26T03:35:05.143Z,50.27
2023-04-26T03:37:39.735Z,33.27
2023-04-26T03:40:13.880Z,25.17
2023-04-26T03:42:48.305Z,26.73
2023-04-26T03:45:21.470Z,34.07
2023-04-26T03:47:54.549Z,24.40
2023-04-26T03:50:27.679Z,31.83
2023-04-26T03:53:00.689Z,31.50
2023-04-26T03:55:33.678Z,25.37
2023-04-26T03:58:08.740Z,28.43
2023-04-26T04:00:42.214Z,21.23
2023-04-26T04:03:15.703Z,29.73
2023-04-26T04:05:48.841Z,22.47
2023-04-26T04:08:21.846Z,24.03
2023-04-26T04:10:54.878Z,23.23
2023-04-26T04:13:29.414Z,25.13
2023-04-26T04:16:02.460Z,22.40
2023-04-26T04:18:35.620Z,18.53
2023-04-26T04:21:08.621Z,21.67
2023-04-26T04:23:42.235Z,21.80
2023-04-26T04:26:15.285Z,20.57
2023-04-26T04:28:49.830Z,22.43
2023-04-26T04:31:23.211Z,22.40
2023-04-26T04:33:56.303Z,57.57
2023-04-26T04:36:29.331Z,19.77
2023-04-26T04:39:03.286Z,23.83
2023-04-26T04:41:36.914Z,27.03
2023-04-26T04:44:11.250Z,20.23
2023-04-26T04:46:44.541Z,18.50
2023-04-26T04:49:19.228Z,22.43
2023-04-26T04:51:53.103Z,30.57
2023-04-26T04:54:26.100Z,20.53
2023-04-26T04:56:59.153Z,34.23
2023-04-26T04:59:33.515Z,28.27
2023-04-26T05:02:06.748Z,20.57
2023-04-26T05:04:40.000Z,30.93
2023-04-26T05:07:15.531Z,24.57
2023-04-26T05:09:48.545Z,26.20
2023-04-26T05:12:21.808Z,36.63
2023-04-26T05:14:56.210Z,20.40
2023-04-26T05:17:30.923Z,26.30
2023-04-26T05:20:07.890Z,28.37
2023-04-26T05:22:41.333Z,25.10
2023-04-26T05:25:14.669Z,26.37
2023-04-26T05:27:47.651Z,24.80
2023-04-26T05:30:22.109Z,25.30
2023-04-26T05:32:56.826Z,31.73
2023-04-26T05:35:29.868Z,19.27
2023-04-26T05:38:02.880Z,23.37
2023-04-26T05:40:35.916Z,22.83
2023-04-26T05:43:08.963Z,22.83
2023-04-26T05:45:52.393Z,23.20
2023-04-26T05:48:26.245Z,30.13
2023-04-26T05:50:59.342Z,25.43
2023-04-26T05:53:33.713Z,35.87
2023-04-26T05:56:07.133Z,19.30
2023-04-26T05:58:40.137Z,20.17
2023-04-26T06:01:14.832Z,37.47
2023-04-26T06:03:48.310Z,18.83
2023-04-26T06:06:21.539Z,18.00
2023-04-26T06:08:54.543Z,23.83
2023-04-26T06:11:27.744Z,19.20
2023-04-26T06:14:00.756Z,23.47
2023-04-26T06:16:35.171Z,20.50
2023-04-26T06:19:08.164Z,21.33
2023-04-26T06:21:41.181Z,16.97
2023-04-26T06:24:14.151Z,16.10
2023-04-26T06:26:47.287Z,16.43
2023-04-26T06:29:21.241Z,25.23
2023-04-26T06:31:55.742Z,17.07
2023-04-26T06:34:28.778Z,18.90
2023-04-26T06:37:01.883Z,18.47
2023-04-26T06:39:34.930Z,17.10
2023-04-26T06:42:08.070Z,18.00
2023-04-26T06:44:41.079Z,17.53
2023-04-26T06:47:15.419Z,17.40
2023-04-26T06:49:48.446Z,16.57
2023-04-26T06:52:21.756Z,18.40
2023-04-26T06:54:57.591Z,18.07
2023-04-26T06:57:30.918Z,18.80
2023-04-26T07:00:06.204Z,20.50
2023-04-26T07:02:41.280Z,19.93
2023-04-26T07:05:15.305Z,19.63
2023-04-26T07:07:49.609Z,21.07
2023-04-26T07:10:23.045Z,19.53
2023-04-26T07:12:56.069Z,21.27
2023-04-26T07:15:29.726Z,20.10
2023-04-26T07:18:04.164Z,18.03
2023-04-26T07:20:37.254Z,17.27
2023-04-26T07:23:10.235Z,17.67
2023-04-26T07:25:43.224Z,17.05
2023-04-26T07:28:16.252Z,16.75
2023-04-26T07:30:49.303Z,16.20
2023-04-26T07:33:23.766Z,14.70
2023-04-26T07:35:58.734Z,14.20
2023-04-26T07:38:31.929Z,13.48
2023-04-26T07:41:05.559Z,13.63
2023-04-26T07:43:39.429Z,11.85
2023-04-26T07:46:12.507Z,11.50
2023-04-26T07:48:46.851Z,9.20
2023-04-26T07:51:20.106Z,9.68
2023-04-26T07:53:53.319Z,8.20
2023-04-26T07:56:26.551Z,5.05
2023-04-26T07:58:59.514Z,4.95
2023-04-26T08:01:32.539Z,5.22
2023-04-26T08:04:07.390Z,7.20
2023-04-26T08:06:44.911Z,6.80
2023-04-26T08:09:18.981Z,8.52
2023-04-26T08:11:52.020Z,7.75
2023-04-26T08:14:25.036Z,6.70
2023-04-26T08:16:58.140Z,6.70
2023-04-26T08:19:33.439Z,7.15
2023-04-26T08:22:06.618Z,6.55
2023-04-26T08:24:39.662Z,7.47
2023-04-26T08:27:12.752Z,6.53
2023-04-26T08:29:46.034Z,6.53
2023-04-26T08:32:19.056Z,6.53
2023-04-26T08:34:53.400Z,6.55
2023-04-26T08:37:28.020Z,8.63
2023-04-26T08:40:02.281Z,6.50
2023-04-26T08:42:40.439Z,6.07
2023-04-26T08:45:13.445Z,6.00
2023-04-26T08:47:50.249Z,6.07
2023-04-26T08:50:25.237Z,7.47
2023-04-26T08:52:58.281Z,6.18
2023-04-26T08:55:31.649Z,6.63
2023-04-26T08:58:06.876Z,6.22
2023-04-26T09:00:39.968Z,7.00
2023-04-26T09:03:13.539Z,5.50
2023-04-26T09:05:48.241Z,6.78
2023-04-26T09:08:22.065Z,5.63
2023-04-26T09:10:55.031Z,4.95
2023-04-26T09:13:30.431Z,5.68
2023-04-26T09:16:05.024Z,5.93
2023-04-26T09:18:51.878Z,5.00
2023-04-26T09:21:26.518Z,5.53
2023-04-26T09:24:01.703Z,5.95
2023-04-26T09:26:34.720Z,7.05
2023-04-26T09:29:16.283Z,5.68
2023-04-26T09:31:50.802Z,4.63
2023-04-26T09:34:23.895Z,5.45
2023-04-26T09:36:58.722Z,6.75
2023-04-26T09:39:33.909Z,6.25
2023-04-26T09:42:07.897Z,6.15
2023-04-26T09:44:41.247Z,5.90
2023-04-26T09:47:14.271Z,6.25
2023-04-26T09:49:50.501Z,5.05
2023-04-26T09:52:24.892Z,7.43
2023-04-26T09:54:57.942Z,4.65
2023-04-26T09:57:31.349Z,6.28
2023-04-26T10:00:12.355Z,4.90
2023-04-26T10:02:45.584Z,4.82
2023-04-26T10:05:18.998Z,5.50
2023-04-26T10:07:53.423Z,5.18
2023-04-26T10:10:27.204Z,3.92
2023-04-26T10:13:00.958Z,4.78
2023-04-26T10:15:34.107Z,4.90
2023-04-26T10:18:07.306Z,4.72
2023-04-26T10:20:42.932Z,6.45
2023-04-26T10:23:22.062Z,5.85
2023-04-26T10:25:56.479Z,5.20
2023-04-26T10:29:01.710Z,5.55
2023-04-26T10:32:08.795Z,4.43
2023-04-26T10:34:41.907Z,4.90
2023-04-26T10:37:16.411Z,7.10
2023-04-26T10:39:50.838Z,3.88
2023-04-26T10:42:27.404Z,4.53
2023-04-26T10:45:02.773Z,4.18
2023-04-26T10:47:37.374Z,7.13
2023-04-26T10:50:12.542Z,4.97
2023-04-26T10:53:06.795Z,4.32
2023-04-26T10:55:42.666Z,3.78
2023-04-26T10:58:29.704Z,5.07
2023-04-26T11:01:07.156Z,4.20
2023-04-26T11:03:42.393Z,5.57
2023-04-26T11:06:18.207Z,4.68
2023-04-26T11:08:51.964Z,5.43
2023-04-26T11:11:29.804Z,4.25
2023-04-26T11:14:03.875Z,4.18
2023-04-26T11:16:37.203Z,4.68
2023-04-26T11:19:11.185Z,4.53
2023-04-26T11:21:44.217Z,4.13
2023-04-26T11:24:17.749Z,4.22
2023-04-26T11:26:54.225Z,4.70
2023-04-26T11:29:27.368Z,4.38
2023-04-26T11:32:00.396Z,3.60
2023-04-26T11:34:34.350Z,4.80
2023-04-26T11:37:08.474Z,4.63
2023-04-26T11:39:41.573Z,6.40
2023-04-26T11:42:15.977Z,5.10
2023-04-26T11:44:52.603Z,4.07
2023-04-26T11:47:26.176Z,3.78
2023-04-26T11:49:59.406Z,4.00
2023-04-26T11:52:32.631Z,6.00
2023-04-26T11:55:07.682Z,7.30
2023-04-26T11:57:42.149Z,7.80
2023-04-26T12:00:16.772Z,6.88
2023-04-26T12:02:52.249Z,4.47
2023-04-26T12:05:28.228Z,10.05
2023-04-26T12:08:02.128Z,6.28
2023-04-26T12:10:37.472Z,3.85
2023-04-26T12:13:15.267Z,3.88
2023-04-26T12:15:50.428Z,4.47
2023-04-26T12:18:23.663Z,4.65
2023-04-26T12:21:00.055Z,4.05
2023-04-26T12:23:41.752Z,5.50
2023-04-26T12:26:15.377Z,4.60
2023-04-26T12:28:49.764Z,4.30
2023-04-26T12:31:23.845Z,4.70
2023-04-26T12:33:56.945Z,3.63
2023-04-26T12:36:29.936Z,4.18
2023-04-26T12:39:05.273Z,4.45
2023-04-26T12:41:38.342Z,3.97
2023-04-26T12:44:14.295Z,5.18
2023-04-26T12:46:47.623Z,4.47
2023-04-26T12:49:21.096Z,5.82
2023-04-26T12:51:54.104Z,4.15
2023-04-26T12:54:27.332Z,3.58
2023-04-26T12:57:00.386Z,4.68
2023-04-26T12:59:34.716Z,3.60
2023-04-26T13:02:10.176Z,3.97
2023-04-26T13:04:43.541Z,3.97
2023-04-26T13:07:17.303Z,4.80
2023-04-26T13:09:50.437Z,3.85
2023-04-26T13:12:23.523Z,4.20
2023-04-26T13:14:57.889Z,4.22
2023-04-26T13:17:31.730Z,4.05
2023-04-26T13:20:06.950Z,4.43
2023-04-26T13:22:42.389Z,5.47
2023-04-26T13:25:17.988Z,4.90
2023-04-26T13:27:53.461Z,3.42
2023-04-26T13:30:27.872Z,4.88
2023-04-26T13:33:01.091Z,4.10
2023-04-26T13:35:34.177Z,4.35
2023-04-26T13:38:07.184Z,4.50
2023-04-26T13:40:40.244Z,4.90
2023-04-26T13:43:13.263Z,4.20
2023-04-26T13:45:47.559Z,5.88
2023-04-26T13:48:20.755Z,4.47
2023-04-26T13:50:53.762Z,5.57
2023-04-26T13:53:27.098Z,4.45
2023-04-26T13:56:00.031Z,5.45
2023-04-26T13:58:33.035Z,5.10
2023-04-26T14:01:07.378Z,4.20
2023-04-26T14:03:40.975Z,3.85
2023-04-26T14:06:14.170Z,5.25
2023-04-26T14:08:47.106Z,5.22
2023-04-26T14:11:20.104Z,3.75
2023-04-26T14:13:55.928Z,3.85
2023-04-26T14:16:30.401Z,4.03
2023-04-26T14:19:03.670Z,5.15
2023-04-26T14:21:36.745Z,4.00
2023-04-26T14:24:11.161Z,4.07
2023-04-26T14:26:44.127Z,4.95
2023-04-26T14:29:17.180Z,4.22
2023-04-26T14:31:51.511Z,3.92
2023-04-26T14:34:24.541Z,4.43
2023-04-26T14:37:01.513Z,5.10
2023-04-26T14:39:34.866Z,4.13
2023-04-26T14:42:07.945Z,3.95
2023-04-26T14:44:41.428Z,4.47
2023-04-26T14:47:15.939Z,5.32
2023-04-26T14:49:48.998Z,4.70
2023-04-26T14:52:26.814Z,4.47
2023-04-26T14:54:59.773Z,5.10
2023-04-26T14:57:32.968Z,4.57
2023-04-26T15:00:09.135Z,3.83
2023-04-26T15:02:43.945Z,4.10
2023-04-26T15:05:17.762Z,4.80
2023-04-26T15:07:50.856Z,4.43
2023-04-26T15:10:23.805Z,3.90
2023-04-26T15:12:57.134Z,3.63
2023-04-26T15:15:30.148Z,4.22
2023-04-26T15:18:04.915Z,5.30
2023-04-26T15:20:41.136Z,3.63
2023-04-26T15:23:14.664Z,4.95
2023-04-26T15:25:48.166Z,3.83
2023-04-26T15:28:21.524Z,4.95
2023-04-26T15:31:03.170Z,6.03
2023-04-26T15:33:37.764Z,4.20
2023-04-26T15:36:11.110Z,4.47
2023-04-26T15:38:45.299Z,4.47
2023-04-26T15:41:18.379Z,5.88
2023-04-26T15:43:55.080Z,4.80
2023-04-26T15:46:28.165Z,5.05
2023-04-26T15:49:02.517Z,4.80
2023-04-26T15:51:35.859Z,4.63
2023-04-26T15:54:08.925Z,5.93
2023-04-26T15:56:42.316Z,4.43
2023-04-26T15:59:15.690Z,4.90
2023-04-26T16:01:48.780Z,4.70
2023-04-26T16:04:23.373Z,4.65
2023-04-26T16:06:56.593Z,4.50
2023-04-26T16:09:30.573Z,4.38
2023-04-26T16:12:05.548Z,4.70
2023-04-26T16:14:38.667Z,3.42
2023-04-26T16:17:11.638Z,6.47
2023-04-26T16:19:45.972Z,5.10
2023-04-26T16:22:18.945Z,5.75
2023-04-26T16:24:51.883Z,5.55
2023-04-26T16:27:24.978Z,5.47
2023-04-26T16:29:58.316Z,4.78
2023-04-26T16:32:31.804Z,6.50
2023-04-26T16:35:08.778Z,4.38
2023-04-26T16:37:41.867Z,5.28
2023-04-26T16:40:15.349Z,7.10
2023-04-26T16:42:48.304Z,3.38
2023-04-26T16:45:21.874Z,5.15
2023-04-26T16:47:54.881Z,4.97
2023-04-26T16:50:29.342Z,4.88
2023-04-26T16:53:02.309Z,4.32
2023-04-26T16:55:35.266Z,7.15
2023-04-26T16:58:09.232Z,4.90
2023-04-26T17:00:44.570Z,4.50
2023-04-26T17:03:18.180Z,4.50
2023-04-26T17:05:52.705Z,5.45
2023-04-26T17:08:27.134Z,5.18
2023-04-26T17:11:00.140Z,6.93
2023-04-26T17:13:33.637Z,7.20
2023-04-26T17:16:09.461Z,4.57
2023-04-26T17:18:42.732Z,4.97
2023-04-26T17:21:17.030Z,3.78
2023-04-26T17:23:49.971Z,4.05
2023-04-26T17:26:22.942Z,4.28
2023-04-26T17:28:56.335Z,3.72
2023-04-26T17:31:29.565Z,3.78
2023-04-26T17:34:04.754Z,4.38
2023-04-26T17:36:39.343Z,5.30
2023-04-26T17:39:12.523Z,5.43
2023-04-26T17:41:45.498Z,5.47
2023-04-26T17:44:18.745Z,4.63
2023-04-26T17:46:51.675Z,4.43
2023-04-26T17:49:25.753Z,4.70
2023-04-26T17:52:00.157Z,4.00
2023-04-26T17:54:33.257Z,5.57
2023-04-26T17:57:07.708Z,4.10
2023-04-26T17:59:40.674Z,4.78
2023-04-26T18:02:13.770Z,5.32
2023-04-26T18:04:47.530Z,4.97
2023-04-26T18:07:22.206Z,4.05
2023-04-26T18:09:55.131Z,4.78
2023-04-26T18:12:30.650Z,3.97
2023-04-26T18:15:03.699Z,4.88
2023-04-26T18:17:36.886Z,6.45
2023-04-26T18:20:11.225Z,8.13
2023-04-26T18:22:45.555Z,7.05
2023-04-26T18:25:18.670Z,6.20
2023-04-26T18:27:51.747Z,5.95
2023-04-26T18:30:24.716Z,6.63
2023-04-26T18:32:57.690Z,5.78
2023-04-26T18:35:31.014Z,5.50
2023-04-26T18:38:05.493Z,5.63
2023-04-26T18:40:38.459Z,5.50
2023-04-26T18:43:11.949Z,6.00
2023-04-26T18:45:45.133Z,5.72
2023-04-26T18:48:18.078Z,5.00
2023-04-26T18:50:51.859Z,6.43
2023-04-26T18:53:26.311Z,5.22
2023-04-26T18:55:59.323Z,5.55
2023-04-26T18:58:32.368Z,6.93
2023-04-26T19:01:05.415Z,7.00
2023-04-26T19:03:38.572Z,6.75
2023-04-26T19:06:15.097Z,7.00
2023-04-26T19:08:49.442Z,5.88
2023-04-26T19:11:22.469Z,6.93
2023-04-26T19:13:55.508Z,5.78
2023-04-26T19:16:28.510Z,5.35
2023-04-26T19:19:01.608Z,5.57
2023-04-26T19:21:35.084Z,5.90
2023-04-26T19:24:09.843Z,5.22
2023-04-26T19:26:43.053Z,6.60
2023-04-26T19:29:16.105Z,6.18
2023-04-26T19:31:49.129Z,6.03
2023-04-26T19:34:22.777Z,6.22
2023-04-26T19:36:55.966Z,5.95
2023-04-26T19:39:30.529Z,6.30
2023-04-26T19:42:03.608Z,5.65
2023-04-26T19:44:36.584Z,6.78
2023-04-26T19:47:09.663Z,5.15
2023-04-26T19:49:42.663Z,5.50
2023-04-26T19:52:15.625Z,5.07
2023-04-26T19:54:49.962Z,5.65
2023-04-26T19:57:23.305Z,6.15
2023-04-26T19:59:56.424Z,5.82
2023-04-26T20:02:29.621Z,6.72
2023-04-26T20:05:03.014Z,5.47
2023-04-26T20:07:36.135Z,5.82
2023-04-26T20:10:11.431Z,5.68
2023-04-26T20:13:00.457Z,5.82
2023-04-26T20:15:34.059Z,6.05
2023-04-26T20:18:07.401Z,5.45
2023-04-26T20:20:40.420Z,5.85
2023-04-26T20:23:13.365Z,5.20
2023-04-26T20:25:47.719Z,5.78
2023-04-26T20:28:20.893Z,6.55
2023-04-26T20:30:54.147Z,5.30
2023-04-26T20:33:27.206Z,5.72
2023-04-26T20:36:00.211Z,6.25
2023-04-26T20:38:33.439Z,5.50
2023-04-26T20:41:07.748Z,5.68
2023-04-26T20:43:40.954Z,5.95
2023-04-26T20:46:14.039Z,6.07
2023-04-26T20:48:47.139Z,6.97
2023-04-26T20:51:20.136Z,5.97
2023-04-26T20:53:53.076Z,6.20
2023-04-26T20:56:27.417Z,5.90
2023-04-26T20:59:00.539Z,5.93
2023-04-26T21:01:34.082Z,6.80
2023-04-26T21:04:07.230Z,6.33
2023-04-26T21:06:40.568Z,6.90
2023-04-26T21:09:13.583Z,6.43
2023-04-26T21:11:47.880Z,5.53
2023-04-26T21:14:20.998Z,6.50
2023-04-26T21:16:53.949Z,6.23
2023-04-26T21:19:26.942Z,5.17
2023-04-26T21:21:59.894Z,5.40
2023-04-26T21:24:32.805Z,5.77
2023-04-26T21:27:07.116Z,6.17
2023-04-26T21:29:40.109Z,6.57
2023-04-26T21:32:13.221Z,5.63
2023-04-26T21:34:46.207Z,6.30
2023-04-26T21:37:19.191Z,5.30
2023-04-26T21:39:52.127Z,5.40
2023-04-26T21:42:26.412Z,5.80
2023-04-26T21:44:59.614Z,5.73
2023-04-26T21:47:33.190Z,5.32
2023-04-26T21:50:07.514Z,5.23
2023-04-26T21:52:40.504Z,5.40
2023-04-26T21:55:13.422Z,6.03
2023-04-26T21:57:47.725Z,5.77
2023-04-26T22:00:21.098Z,5.83
2023-04-26T22:02:54.181Z,5.37
2023-04-26T22:05:27.247Z,5.30
2023-04-26T22:08:00.255Z,5.70
2023-04-26T22:10:33.269Z,5.50
2023-04-26T22:13:07.592Z,6.20
2023-04-26T22:15:41.073Z,5.83
2023-04-26T22:18:14.045Z,5.47
2023-04-26T22:20:47.085Z,7.70
2023-04-26T22:23:20.062Z,5.37
2023-04-26T22:25:53.191Z,6.03
2023-04-26T22:28:27.767Z,5.67
2023-04-26T22:31:00.825Z,5.87
2023-04-26T22:33:33.790Z,6.37
2023-04-26T22:36:07.496Z,5.97
2023-04-26T22:38:40.778Z,5.47
2023-04-26T22:41:13.790Z,5.83
2023-04-26T22:43:48.060Z,6.80
2023-04-26T22:46:21.073Z,5.77
2023-04-26T22:48:54.198Z,6.47
2023-04-26T22:51:27.188Z,7.20
2023-04-26T22:54:01.289Z,6.40
2023-04-26T22:56:34.296Z,5.77
2023-04-26T22:59:08.626Z,6.30
2023-04-26T23:01:41.736Z,6.13
2023-04-26T23:04:14.846Z,7.47
2023-04-26T23:06:47.901Z,5.80
2023-04-26T23:09:20.960Z,5.80
2023-04-26T23:11:53.968Z,5.70
2023-04-26T23:14:29.636Z,6.57
2023-04-26T23:17:02.717Z,6.17
2023-04-26T23:19:36.515Z,5.90
2023-04-26T23:22:09.649Z,5.53
2023-04-26T23:24:42.679Z,6.43
2023-04-26T23:27:15.719Z,6.03
2023-04-26T23:29:51.387Z,5.77
2023-04-26T23:32:24.460Z,5.47
2023-04-26T23:34:57.429Z,5.63
2023-04-26T23:37:30.429Z,6.13
2023-04-26T23:40:05.698Z,6.50
2023-04-26T23:42:38.711Z,5.80
2023-04-26T23:45:13.357Z,5.90
2023-04-26T23:47:46.472Z,5.80
2023-04-26T23:50:19.491Z,5.10
2023-04-26T23:52:52.519Z,6.03
2023-04-26T23:55:25.583Z,7.63
2023-04-26T23:57:58.545Z,6.33
